Schedule Details

Flight Number: CPX794
Departure: Aeropuerto Internacional Ezeiza/Ministro Pistarini (SAEZ) at N/A
Arrival: Miami International Airport (KMIA) at N/A
Route: UCA UA301 URSUS FLIPR6


Current Weather Information
SAEZ 192300Z 30005KT 9999 FEW060TCU 29/21 Q1005 NOSIG
KMIA 192253Z 10011KT 10SM SCT027 26/21 A3013 RMK AO2 SLP202 T02560206